| Date | Time | Temp. (oF) | Dew Point (oF) | Rel. Hum. (%) | Press. (in.) | Wind Dir. | Wind Speed (mph) | Hourly Rainfall (in.) |
|
|---|---|---|---|---|---|---|---|---|---|
| 1 | 06/07 | 00:00 | 61 | 60 | 98 | 29.96 | NNW | 7 | 0.00 |
| 2 | 06/06 | 23:00 | 61 | 60 | 99 | 29.94 | NNE | 6 | 0.03 |
| 3 | 06/06 | 22:00 | 63 | 62 | 99 | 29.93 | NW | 5 | 0.00 |
| 4 | 06/06 | 21:00 | 62 | 62 | 100 | 29.84 | NE | 5 | 0.00 |
| 5 | 06/06 | 20:00 | 62 | 62 | 100 | 29.83 | NNE | 22 | 0.04 |
| 6 | 06/06 | 19:00 | 61 | 60 | 100 | 29.83 | NNW | 12 | 1.30 |
| 7 | 06/06 | 18:00 | 74 | 69 | 86 | 29.74 | NE | 10 | 0.00 |
| 8 | 06/06 | 17:00 | 77 | 71 | 82 | 29.81 | NE | 2 | 0.00 |
| 9 | 06/06 | 16:00 | 81 | 69 | 69 | 29.83 | NNE | 5 | 0.00 |
| 10 | 06/06 | 15:00 | 82 | 69 | 66 | 29.85 | NNE | 3 | 0.00 |
| 11 | 06/06 | 14:00 | 83 | 70 | 66 | 29.87 | NW | 7 | 0.00 |
| 12 | 06/06 | 13:00 | 83 | 69 | 64 | 29.87 | WNW | 1 | 0.00 |
| 13 | 06/06 | 12:00 | 81 | 69 | 69 | 29.88 | SW | 3 | 0.00 |
| 14 | 06/06 | 11:00 | 79 | 68 | 71 | 29.89 | WNW | 6 | 0.00 |
| 15 | 06/06 | 10:00 | 77 | 69 | 77 | 29.89 | WNW | 7 | 0.00 |
| 16 | 06/06 | 09:00 | 74 | 70 | 89 | 29.90 | SSW | 4 | 0.00 |
| 17 | 06/06 | 08:00 | 71 | 69 | 95 | 29.89 | NW | 1 | 0.00 |
| 18 | 06/06 | 07:00 | 70 | 68 | 96 | 29.87 | W | 2 | 0.00 |
| 19 | 06/06 | 06:00 | 70 | 68 | 95 | 29.86 | WSW | 0 | 0.00 |
| 20 | 06/06 | 05:00 | 70 | 68 | 94 | 29.87 | WNW | 1 | 0.00 |
| 21 | 06/06 | 04:00 | 71 | 69 | 95 | 29.86 | SSW | 2 | 0.00 |
| 22 | 06/06 | 03:00 | 71 | 68 | 91 | 29.87 | S | 2 | 0.00 |
| 23 | 06/06 | 02:00 | 72 | 68 | 88 | 29.89 | S | 2 | 0.00 |
| 24 | 06/06 | 01:00 | 74 | 68 | 83 | 29.91 | NNW | 0 | 0.00 |